sensor_id;sensor_type;location;lat;lon;timestamp;P1;durP1;ratioP1;P2;durP2;ratioP2
75135;SDS011;63707;52.212;9.540;2023-12-04T00:01:16;33.45;;;12.13;;
75135;SDS011;63707;52.212;9.540;2023-12-04T00:03:42;36.70;;;14.30;;
75135;SDS011;63707;52.212;9.540;2023-12-04T00:06:08;33.92;;;14.43;;
75135;SDS011;63707;52.212;9.540;2023-12-04T00:08:35;40.58;;;14.50;;
75135;SDS011;63707;52.212;9.540;2023-12-04T00:11:02;36.38;;;14.68;;
75135;SDS011;63707;52.212;9.540;2023-12-04T00:13:28;32.25;;;12.82;;
75135;SDS011;63707;52.212;9.540;2023-12-04T00:15:54;38.65;;;12.38;;
75135;SDS011;63707;52.212;9.540;2023-12-04T00:18:19;31.88;;;12.30;;
75135;SDS011;63707;52.212;9.540;2023-12-04T00:20:45;31.90;;;12.23;;
75135;SDS011;63707;52.212;9.540;2023-12-04T00:23:10;29.98;;;11.65;;
75135;SDS011;63707;52.212;9.540;2023-12-04T00:25:36;30.27;;;12.40;;
75135;SDS011;63707;52.212;9.540;2023-12-04T00:28:02;29.00;;;10.90;;
75135;SDS011;63707;52.212;9.540;2023-12-04T00:30:28;31.67;;;11.85;;
75135;SDS011;63707;52.212;9.540;2023-12-04T00:32:53;29.17;;;11.52;;
75135;SDS011;63707;52.212;9.540;2023-12-04T00:35:19;28.75;;;11.38;;
75135;SDS011;63707;52.212;9.540;2023-12-04T00:37:44;29.52;;;10.85;;
75135;SDS011;63707;52.212;9.540;2023-12-04T00:40:10;26.17;;;11.40;;
75135;SDS011;63707;52.212;9.540;2023-12-04T00:42:36;28.98;;;10.77;;
75135;SDS011;63707;52.212;9.540;2023-12-04T00:45:03;27.35;;;10.30;;
75135;SDS011;63707;52.212;9.540;2023-12-04T00:47:29;31.45;;;12.50;;
75135;SDS011;63707;52.212;9.540;2023-12-04T00:49:54;28.02;;;10.52;;
75135;SDS011;63707;52.212;9.540;2023-12-04T00:52:20;25.23;;;9.48;;
75135;SDS011;63707;52.212;9.540;2023-12-04T00:54:45;38.05;;;11.68;;
75135;SDS011;63707;52.212;9.540;2023-12-04T00:57:11;26.73;;;9.98;;
75135;SDS011;63707;52.212;9.540;2023-12-04T00:59:36;26.42;;;10.10;;
75135;SDS011;63707;52.212;9.540;2023-12-04T01:02:03;22.42;;;9.07;;
75135;SDS011;63707;52.212;9.540;2023-12-04T01:04:30;28.15;;;10.27;;
75135;SDS011;63707;52.212;9.540;2023-12-04T01:06:56;29.42;;;10.85;;
75135;SDS011;63707;52.212;9.540;2023-12-04T01:09:21;26.67;;;10.07;;
75135;SDS011;63707;52.212;9.540;2023-12-04T01:11:49;25.55;;;10.10;;
75135;SDS011;63707;52.212;9.540;2023-12-04T01:14:15;29.42;;;9.75;;
75135;SDS011;63707;52.212;9.540;2023-12-04T01:16:40;25.85;;;9.80;;
75135;SDS011;63707;52.212;9.540;2023-12-04T01:19:07;26.00;;;10.32;;
75135;SDS011;63707;52.212;9.540;2023-12-04T01:21:33;23.08;;;9.55;;
75135;SDS011;63707;52.212;9.540;2023-12-04T01:23:58;25.38;;;9.98;;
75135;SDS011;63707;52.212;9.540;2023-12-04T01:26:24;25.02;;;9.63;;
75135;SDS011;63707;52.212;9.540;2023-12-04T01:28:49;24.80;;;9.50;;
75135;SDS011;63707;52.212;9.540;2023-12-04T01:31:15;25.30;;;10.52;;
75135;SDS011;63707;52.212;9.540;2023-12-04T01:33:40;28.40;;;10.85;;
75135;SDS011;63707;52.212;9.540;2023-12-04T01:36:07;28.42;;;10.32;;
75135;SDS011;63707;52.212;9.540;2023-12-04T01:38:33;28.08;;;10.50;;
75135;SDS011;63707;52.212;9.540;2023-12-04T01:40:59;27.48;;;10.27;;
75135;SDS011;63707;52.212;9.540;2023-12-04T01:43:24;25.67;;;10.10;;
75135;SDS011;63707;52.212;9.540;2023-12-04T01:45:50;24.40;;;9.30;;
75135;SDS011;63707;52.212;9.540;2023-12-04T01:48:17;29.15;;;10.40;;
75135;SDS011;63707;52.212;9.540;2023-12-04T01:50:43;22.75;;;9.00;;
75135;SDS011;63707;52.212;9.540;2023-12-04T01:53:10;23.77;;;9.73;;
75135;SDS011;63707;52.212;9.540;2023-12-04T01:55:36;28.33;;;10.82;;
75135;SDS011;63707;52.212;9.540;2023-12-04T01:58:03;27.38;;;9.98;;
75135;SDS011;63707;52.212;9.540;2023-12-04T02:00:30;22.80;;;8.98;;
75135;SDS011;63707;52.212;9.540;2023-12-04T02:02:56;25.20;;;9.90;;
75135;SDS011;63707;52.212;9.540;2023-12-04T02:05:23;24.10;;;9.50;;
75135;SDS011;63707;52.212;9.540;2023-12-04T02:07:49;22.63;;;8.63;;
75135;SDS011;63707;52.212;9.540;2023-12-04T02:10:16;23.20;;;9.23;;
75135;SDS011;63707;52.212;9.540;2023-12-04T02:12:42;21.85;;;9.23;;
75135;SDS011;63707;52.212;9.540;2023-12-04T02:15:08;22.00;;;9.23;;
75135;SDS011;63707;52.212;9.540;2023-12-04T02:17:34;24.30;;;9.77;;
75135;SDS011;63707;52.212;9.540;2023-12-04T02:20:00;21.98;;;8.82;;
75135;SDS011;63707;52.212;9.540;2023-12-04T02:22:26;26.17;;;9.43;;
75135;SDS011;63707;52.212;9.540;2023-12-04T02:24:53;24.30;;;9.35;;
75135;SDS011;63707;52.212;9.540;2023-12-04T02:27:23;22.80;;;8.32;;
75135;SDS011;63707;52.212;9.540;2023-12-04T02:30:00;24.17;;;9.43;;
75135;SDS011;63707;52.212;9.540;2023-12-04T02:32:27;23.23;;;9.20;;
75135;SDS011;63707;52.212;9.540;2023-12-04T02:34:54;24.55;;;9.48;;
75135;SDS011;63707;52.212;9.540;2023-12-04T02:37:21;22.65;;;9.15;;
75135;SDS011;63707;52.212;9.540;2023-12-04T02:39:48;23.52;;;9.10;;
75135;SDS011;63707;52.212;9.540;2023-12-04T02:42:19;23.85;;;9.25;;
75135;SDS011;63707;52.212;9.540;2023-12-04T02:44:44;23.02;;;9.05;;
75135;SDS011;63707;52.212;9.540;2023-12-04T02:47:10;24.52;;;8.98;;
75135;SDS011;63707;52.212;9.540;2023-12-04T02:49:36;21.80;;;8.50;;
75135;SDS011;63707;52.212;9.540;2023-12-04T02:52:02;23.08;;;8.80;;
75135;SDS011;63707;52.212;9.540;2023-12-04T02:54:28;24.65;;;9.25;;
75135;SDS011;63707;52.212;9.540;2023-12-04T02:56:53;26.30;;;9.93;;
75135;SDS011;63707;52.212;9.540;2023-12-04T02:59:20;24.27;;;9.23;;
75135;SDS011;63707;52.212;9.540;2023-12-04T03:01:45;25.20;;;9.63;;
75135;SDS011;63707;52.212;9.540;2023-12-04T03:04:11;21.77;;;8.77;;
75135;SDS011;63707;52.212;9.540;2023-12-04T03:06:36;20.25;;;8.65;;
75135;SDS011;63707;52.212;9.540;2023-12-04T03:09:02;28.00;;;9.60;;
75135;SDS011;63707;52.212;9.540;2023-12-04T03:11:29;22.50;;;8.60;;
75135;SDS011;63707;52.212;9.540;2023-12-04T03:13:54;25.77;;;8.95;;
75135;SDS011;63707;52.212;9.540;2023-12-04T03:16:21;22.48;;;8.48;;
75135;SDS011;63707;52.212;9.540;2023-12-04T03:18:47;23.35;;;9.10;;
75135;SDS011;63707;52.212;9.540;2023-12-04T03:21:12;23.23;;;9.05;;
75135;SDS011;63707;52.212;9.540;2023-12-04T03:23:38;22.60;;;8.65;;
75135;SDS011;63707;52.212;9.540;2023-12-04T03:26:03;21.38;;;8.73;;
75135;SDS011;63707;52.212;9.540;2023-12-04T03:28:29;22.30;;;9.02;;
75135;SDS011;63707;52.212;9.540;2023-12-04T03:30:54;22.63;;;8.85;;
75135;SDS011;63707;52.212;9.540;2023-12-04T03:33:21;19.48;;;8.05;;
75135;SDS011;63707;52.212;9.540;2023-12-04T03:35:47;23.55;;;8.88;;
75135;SDS011;63707;52.212;9.540;2023-12-04T03:38:12;25.23;;;9.88;;
75135;SDS011;63707;52.212;9.540;2023-12-04T03:40:38;22.90;;;8.68;;
75135;SDS011;63707;52.212;9.540;2023-12-04T03:43:03;23.63;;;8.82;;
75135;SDS011;63707;52.212;9.540;2023-12-04T03:45:29;21.23;;;9.05;;
75135;SDS011;63707;52.212;9.540;2023-12-04T03:47:54;26.48;;;9.48;;
75135;SDS011;63707;52.212;9.540;2023-12-04T03:50:21;21.42;;;8.98;;
75135;SDS011;63707;52.212;9.540;2023-12-04T03:52:47;21.83;;;9.05;;
75135;SDS011;63707;52.212;9.540;2023-12-04T03:55:12;22.95;;;8.23;;
75135;SDS011;63707;52.212;9.540;2023-12-04T03:57:38;24.55;;;9.25;;
75135;SDS011;63707;52.212;9.540;2023-12-04T04:00:04;24.92;;;10.20;;
75135;SDS011;63707;52.212;9.540;2023-12-04T04:02:30;23.70;;;9.88;;
75135;SDS011;63707;52.212;9.540;2023-12-04T04:04:55;22.50;;;9.93;;
75135;SDS011;63707;52.212;9.540;2023-12-04T04:07:22;24.98;;;10.85;;
75135;SDS011;63707;52.212;9.540;2023-12-04T04:09:48;26.15;;;10.63;;
75135;SDS011;63707;52.212;9.540;2023-12-04T04:12:13;26.83;;;9.65;;
75135;SDS011;63707;52.212;9.540;2023-12-04T04:14:39;20.55;;;9.60;;
75135;SDS011;63707;52.212;9.540;2023-12-04T04:17:04;22.92;;;9.65;;
75135;SDS011;63707;52.212;9.540;2023-12-04T04:19:30;27.38;;;10.77;;
75135;SDS011;63707;52.212;9.540;2023-12-04T04:21:55;25.38;;;10.50;;
75135;SDS011;63707;52.212;9.540;2023-12-04T04:24:22;25.55;;;11.13;;
75135;SDS011;63707;52.212;9.540;2023-12-04T04:26:47;25.25;;;10.10;;
75135;SDS011;63707;52.212;9.540;2023-12-04T04:29:13;24.23;;;10.30;;
75135;SDS011;63707;52.212;9.540;2023-12-04T04:31:38;25.35;;;10.38;;
75135;SDS011;63707;52.212;9.540;2023-12-04T04:34:04;26.17;;;10.13;;
75135;SDS011;63707;52.212;9.540;2023-12-04T04:36:29;23.75;;;9.88;;
75135;SDS011;63707;52.212;9.540;2023-12-04T04:38:55;24.48;;;9.90;;
75135;SDS011;63707;52.212;9.540;2023-12-04T04:41:22;23.83;;;9.95;;
75135;SDS011;63707;52.212;9.540;2023-12-04T04:43:48;25.30;;;9.65;;
75135;SDS011;63707;52.212;9.540;2023-12-04T04:46:13;25.20;;;10.05;;
75135;SDS011;63707;52.212;9.540;2023-12-04T04:48:39;22.83;;;9.43;;
75135;SDS011;63707;52.212;9.540;2023-12-04T04:51:05;24.48;;;10.25;;
75135;SDS011;63707;52.212;9.540;2023-12-04T04:53:30;27.15;;;10.52;;
75135;SDS011;63707;52.212;9.540;2023-12-04T04:55:56;22.92;;;9.60;;
75135;SDS011;63707;52.212;9.540;2023-12-04T04:58:22;22.05;;;8.77;;
75135;SDS011;63707;52.212;9.540;2023-12-04T05:00:48;23.92;;;9.85;;
75135;SDS011;63707;52.212;9.540;2023-12-04T05:03:13;22.70;;;9.50;;
75135;SDS011;63707;52.212;9.540;2023-12-04T05:05:39;23.30;;;8.77;;
75135;SDS011;63707;52.212;9.540;2023-12-04T05:08:04;23.05;;;9.55;;
75135;SDS011;63707;52.212;9.540;2023-12-04T05:10:30;22.05;;;9.23;;
75135;SDS011;63707;52.212;9.540;2023-12-04T05:12:55;23.42;;;9.52;;
75135;SDS011;63707;52.212;9.540;2023-12-04T05:15:22;22.42;;;9.57;;
75135;SDS011;63707;52.212;9.540;2023-12-04T05:17:48;23.95;;;10.23;;
75135;SDS011;63707;52.212;9.540;2023-12-04T05:20:13;23.08;;;8.90;;
75135;SDS011;63707;52.212;9.540;2023-12-04T05:22:39;20.85;;;8.48;;
75135;SDS011;63707;52.212;9.540;2023-12-04T05:25:05;21.08;;;8.95;;
75135;SDS011;63707;52.212;9.540;2023-12-04T05:27:31;21.35;;;9.02;;
75135;SDS011;63707;52.212;9.540;2023-12-04T05:29:57;22.08;;;9.50;;
75135;SDS011;63707;52.212;9.540;2023-12-04T05:32:24;24.25;;;10.48;;
75135;SDS011;63707;52.212;9.540;2023-12-04T05:34:49;24.98;;;9.55;;
75135;SDS011;63707;52.212;9.540;2023-12-04T05:37:15;25.50;;;9.57;;
75135;SDS011;63707;52.212;9.540;2023-12-04T05:39:40;20.02;;;9.68;;
75135;SDS011;63707;52.212;9.540;2023-12-04T05:42:06;19.90;;;9.65;;
75135;SDS011;63707;52.212;9.540;2023-12-04T05:44:31;22.15;;;9.00;;
75135;SDS011;63707;52.212;9.540;2023-12-04T05:46:58;24.80;;;9.55;;
75135;SDS011;63707;52.212;9.540;2023-12-04T05:49:25;19.58;;;8.50;;
75135;SDS011;63707;52.212;9.540;2023-12-04T05:51:50;21.75;;;8.93;;
75135;SDS011;63707;52.212;9.540;2023-12-04T05:54:16;24.05;;;10.32;;
75135;SDS011;63707;52.212;9.540;2023-12-04T05:56:42;22.15;;;9.35;;
75135;SDS011;63707;52.212;9.540;2023-12-04T05:59:08;21.80;;;8.70;;
75135;SDS011;63707;52.212;9.540;2023-12-04T06:01:33;21.98;;;9.10;;
75135;SDS011;63707;52.212;9.540;2023-12-04T06:03:58;20.15;;;8.48;;
75135;SDS011;63707;52.212;9.540;2023-12-04T06:06:25;21.23;;;9.30;;
75135;SDS011;63707;52.212;9.540;2023-12-04T06:08:52;23.60;;;9.95;;
75135;SDS011;63707;52.212;9.540;2023-12-04T06:11:17;24.65;;;9.55;;
75135;SDS011;63707;52.212;9.540;2023-12-04T06:13:43;23.15;;;9.77;;
75135;SDS011;63707;52.212;9.540;2023-12-04T06:16:09;27.15;;;10.73;;
75135;SDS011;63707;52.212;9.540;2023-12-04T06:18:34;20.50;;;8.75;;
75135;SDS011;63707;52.212;9.540;2023-12-04T06:21:00;24.40;;;9.50;;
75135;SDS011;63707;52.212;9.540;2023-12-04T06:23:27;19.83;;;9.00;;
75135;SDS011;63707;52.212;9.540;2023-12-04T06:25:53;23.08;;;10.10;;
75135;SDS011;63707;52.212;9.540;2023-12-04T06:28:19;23.77;;;9.55;;
75135;SDS011;63707;52.212;9.540;2023-12-04T06:30:45;22.60;;;9.65;;
75135;SDS011;63707;52.212;9.540;2023-12-04T06:33:11;23.52;;;9.60;;
75135;SDS011;63707;52.212;9.540;2023-12-04T06:35:39;23.33;;;9.88;;
75135;SDS011;63707;52.212;9.540;2023-12-04T06:38:06;29.75;;;12.20;;
75135;SDS011;63707;52.212;9.540;2023-12-04T06:40:34;20.95;;;9.65;;
75135;SDS011;63707;52.212;9.540;2023-12-04T06:43:00;20.05;;;8.95;;
75135;SDS011;63707;52.212;9.540;2023-12-04T06:45:26;22.02;;;9.10;;
75135;SDS011;63707;52.212;9.540;2023-12-04T06:47:52;21.48;;;9.95;;
75135;SDS011;63707;52.212;9.540;2023-12-04T06:50:19;23.60;;;10.02;;
75135;SDS011;63707;52.212;9.540;2023-12-04T06:52:44;20.88;;;8.73;;
75135;SDS011;63707;52.212;9.540;2023-12-04T06:55:10;23.80;;;10.45;;
75135;SDS011;63707;52.212;9.540;2023-12-04T06:57:38;21.02;;;9.52;;
75135;SDS011;63707;52.212;9.540;2023-12-04T07:00:04;21.08;;;9.50;;
75135;SDS011;63707;52.212;9.540;2023-12-04T07:02:32;21.70;;;8.55;;
75135;SDS011;63707;52.212;9.540;2023-12-04T07:04:57;24.83;;;10.20;;
75135;SDS011;63707;52.212;9.540;2023-12-04T07:07:23;21.02;;;9.45;;
75135;SDS011;63707;52.212;9.540;2023-12-04T07:09:48;24.85;;;10.50;;
75135;SDS011;63707;52.212;9.540;2023-12-04T07:12:14;20.13;;;8.85;;
75135;SDS011;63707;52.212;9.540;2023-12-04T07:14:41;21.20;;;9.48;;
75135;SDS011;63707;52.212;9.540;2023-12-04T07:17:06;24.33;;;10.27;;
75135;SDS011;63707;52.212;9.540;2023-12-04T07:19:32;18.13;;;8.18;;
75135;SDS011;63707;52.212;9.540;2023-12-04T07:21:58;21.80;;;9.63;;
75135;SDS011;63707;52.212;9.540;2023-12-04T07:24:23;24.58;;;10.57;;
75135;SDS011;63707;52.212;9.540;2023-12-04T07:26:49;23.15;;;9.65;;
75135;SDS011;63707;52.212;9.540;2023-12-04T07:29:15;22.73;;;10.50;;
75135;SDS011;63707;52.212;9.540;2023-12-04T07:31:42;22.33;;;9.52;;
75135;SDS011;63707;52.212;9.540;2023-12-04T07:34:08;24.85;;;9.82;;
75135;SDS011;63707;52.212;9.540;2023-12-04T07:36:34;23.40;;;10.75;;
75135;SDS011;63707;52.212;9.540;2023-12-04T07:38:59;22.35;;;9.90;;
75135;SDS011;63707;52.212;9.540;2023-12-04T07:41:25;21.35;;;9.90;;
75135;SDS011;63707;52.212;9.540;2023-12-04T07:43:50;23.38;;;10.23;;
75135;SDS011;63707;52.212;9.540;2023-12-04T07:46:16;24.00;;;10.95;;
75135;SDS011;63707;52.212;9.540;2023-12-04T07:48:43;22.45;;;9.02;;
75135;SDS011;63707;52.212;9.540;2023-12-04T07:51:09;23.58;;;10.90;;
75135;SDS011;63707;52.212;9.540;2023-12-04T07:53:34;22.55;;;9.73;;
75135;SDS011;63707;52.212;9.540;2023-12-04T07:56:00;22.10;;;9.88;;
75135;SDS011;63707;52.212;9.540;2023-12-04T07:58:28;23.27;;;9.85;;
75135;SDS011;63707;52.212;9.540;2023-12-04T08:00:53;22.00;;;9.88;;
75135;SDS011;63707;52.212;9.540;2023-12-04T08:03:19;23.10;;;10.68;;
75135;SDS011;63707;52.212;9.540;2023-12-04T08:05:45;22.25;;;9.43;;
75135;SDS011;63707;52.212;9.540;2023-12-04T08:08:11;24.98;;;10.93;;
75135;SDS011;63707;52.212;9.540;2023-12-04T08:10:36;24.13;;;10.45;;
75135;SDS011;63707;52.212;9.540;2023-12-04T08:13:02;23.80;;;10.10;;
75135;SDS011;63707;52.212;9.540;2023-12-04T08:15:27;22.92;;;10.45;;
75135;SDS011;63707;52.212;9.540;2023-12-04T08:17:53;21.95;;;10.65;;
75135;SDS011;63707;52.212;9.540;2023-12-04T08:20:18;25.92;;;10.85;;
75135;SDS011;63707;52.212;9.540;2023-12-04T08:22:48;23.45;;;10.38;;
75135;SDS011;63707;52.212;9.540;2023-12-04T08:25:14;23.10;;;10.35;;
75135;SDS011;63707;52.212;9.540;2023-12-04T08:27:40;22.25;;;10.18;;
75135;SDS011;63707;52.212;9.540;2023-12-04T08:30:06;22.92;;;10.10;;
75135;SDS011;63707;52.212;9.540;2023-12-04T08:32:32;21.77;;;9.82;;
75135;SDS011;63707;52.212;9.540;2023-12-04T08:34:57;47.25;;;18.60;;
75135;SDS011;63707;52.212;9.540;2023-12-04T08:37:23;35.53;;;14.70;;
75135;SDS011;63707;52.212;9.540;2023-12-04T08:39:50;25.42;;;10.00;;
75135;SDS011;63707;52.212;9.540;2023-12-04T08:42:15;38.95;;;15.35;;
75135;SDS011;63707;52.212;9.540;2023-12-04T08:44:41;45.05;;;16.25;;
75135;SDS011;63707;52.212;9.540;2023-12-04T08:47:06;25.73;;;9.45;;
75135;SDS011;63707;52.212;9.540;2023-12-04T08:49:32;58.20;;;24.05;;
75135;SDS011;63707;52.212;9.540;2023-12-04T08:51:59;41.00;;;17.30;;
75135;SDS011;63707;52.212;9.540;2023-12-04T08:54:24;27.33;;;11.60;;
75135;SDS011;63707;52.212;9.540;2023-12-04T08:56:51;51.70;;;21.38;;
75135;SDS011;63707;52.212;9.540;2023-12-04T08:59:17;27.65;;;12.70;;
75135;SDS011;63707;52.212;9.540;2023-12-04T09:01:42;27.40;;;12.05;;
75135;SDS011;63707;52.212;9.540;2023-12-04T09:04:08;31.00;;;13.70;;
75135;SDS011;63707;52.212;9.540;2023-12-04T09:06:34;30.73;;;13.05;;
75135;SDS011;63707;52.212;9.540;2023-12-04T09:09:00;30.63;;;13.43;;
75135;SDS011;63707;52.212;9.540;2023-12-04T09:11:25;28.85;;;12.38;;
75135;SDS011;63707;52.212;9.540;2023-12-04T09:13:52;30.50;;;13.75;;
75135;SDS011;63707;52.212;9.540;2023-12-04T09:16:18;18.85;;;8.25;;
75135;SDS011;63707;52.212;9.540;2023-12-04T09:18:46;15.70;;;6.75;;
75135;SDS011;63707;52.212;9.540;2023-12-04T09:21:11;19.52;;;8.85;;
75135;SDS011;63707;52.212;9.540;2023-12-04T09:23:37;19.52;;;8.63;;
75135;SDS011;63707;52.212;9.540;2023-12-04T09:26:03;26.45;;;10.45;;
75135;SDS011;63707;52.212;9.540;2023-12-04T09:28:28;19.90;;;8.60;;
75135;SDS011;63707;52.212;9.540;2023-12-04T09:30:55;17.33;;;8.52;;
75135;SDS011;63707;52.212;9.540;2023-12-04T09:33:23;20.88;;;9.18;;
75135;SDS011;63707;52.212;9.540;2023-12-04T09:35:48;18.58;;;8.25;;
75135;SDS011;63707;52.212;9.540;2023-12-04T09:38:14;17.17;;;8.35;;
75135;SDS011;63707;52.212;9.540;2023-12-04T09:40:39;16.65;;;8.07;;
75135;SDS011;63707;52.212;9.540;2023-12-04T09:43:05;17.75;;;8.02;;
75135;SDS011;63707;52.212;9.540;2023-12-04T09:45:31;19.63;;;9.43;;
75135;SDS011;63707;52.212;9.540;2023-12-04T09:47:58;20.13;;;8.80;;
75135;SDS011;63707;52.212;9.540;2023-12-04T09:50:25;18.63;;;8.52;;
75135;SDS011;63707;52.212;9.540;2023-12-04T09:52:50;21.67;;;9.52;;
75135;SDS011;63707;52.212;9.540;2023-12-04T09:55:19;19.75;;;8.75;;
75135;SDS011;63707;52.212;9.540;2023-12-04T09:57:45;17.52;;;8.52;;
75135;SDS011;63707;52.212;9.540;2023-12-04T10:00:12;19.63;;;9.35;;
75135;SDS011;63707;52.212;9.540;2023-12-04T10:02:39;19.45;;;9.00;;
75135;SDS011;63707;52.212;9.540;2023-12-04T10:05:07;17.77;;;8.88;;
75135;SDS011;63707;52.212;9.540;2023-12-04T10:07:33;20.00;;;8.45;;
75135;SDS011;63707;52.212;9.540;2023-12-04T10:09:58;16.15;;;8.45;;
75135;SDS011;63707;52.212;9.540;2023-12-04T10:12:24;21.48;;;9.45;;
75135;SDS011;63707;52.212;9.540;2023-12-04T10:15:02;18.85;;;9.25;;
75135;SDS011;63707;52.212;9.540;2023-12-04T10:17:32;21.95;;;9.40;;
75135;SDS011;63707;52.212;9.540;2023-12-04T10:20:03;21.60;;;8.70;;
75135;SDS011;63707;52.212;9.540;2023-12-04T10:22:37;18.17;;;8.02;;
75135;SDS011;63707;52.212;9.540;2023-12-04T10:25:11;17.52;;;8.18;;
75135;SDS011;63707;52.212;9.540;2023-12-04T10:27:39;17.58;;;8.95;;
75135;SDS011;63707;52.212;9.540;2023-12-04T10:30:05;19.08;;;9.07;;
75135;SDS011;63707;52.212;9.540;2023-12-04T10:32:32;18.67;;;8.98;;
75135;SDS011;63707;52.212;9.540;2023-12-04T10:35:02;15.00;;;7.30;;
75135;SDS011;63707;52.212;9.540;2023-12-04T10:37:28;16.40;;;8.25;;
75135;SDS011;63707;52.212;9.540;2023-12-04T10:39:56;19.23;;;9.00;;
75135;SDS011;63707;52.212;9.540;2023-12-04T10:42:25;17.80;;;8.20;;
75135;SDS011;63707;52.212;9.540;2023-12-04T10:44:51;16.70;;;7.88;;
75135;SDS011;63707;52.212;9.540;2023-12-04T10:47:17;17.60;;;8.35;;
75135;SDS011;63707;52.212;9.540;2023-12-04T10:49:46;17.50;;;8.18;;
75135;SDS011;63707;52.212;9.540;2023-12-04T10:52:14;17.13;;;7.35;;
75135;SDS011;63707;52.212;9.540;2023-12-04T10:54:39;15.82;;;7.78;;
75135;SDS011;63707;52.212;9.540;2023-12-04T10:57:06;17.20;;;7.85;;
75135;SDS011;63707;52.212;9.540;2023-12-04T10:59:37;16.23;;;7.80;;
75135;SDS011;63707;52.212;9.540;2023-12-04T11:02:04;17.60;;;7.45;;
75135;SDS011;63707;52.212;9.540;2023-12-04T11:04:31;14.95;;;7.57;;
75135;SDS011;63707;52.212;9.540;2023-12-04T11:06:58;19.27;;;8.48;;
75135;SDS011;63707;52.212;9.540;2023-12-04T11:09:27;15.52;;;7.05;;
75135;SDS011;63707;52.212;9.540;2023-12-04T11:11:56;17.92;;;7.78;;
75135;SDS011;63707;52.212;9.540;2023-12-04T11:14:27;16.70;;;7.50;;
75135;SDS011;63707;52.212;9.540;2023-12-04T11:16:57;17.42;;;7.82;;
75135;SDS011;63707;52.212;9.540;2023-12-04T11:19:29;17.77;;;8.23;;
75135;SDS011;63707;52.212;9.540;2023-12-04T11:22:00;17.58;;;8.38;;
75135;SDS011;63707;52.212;9.540;2023-12-04T11:24:27;17.63;;;8.45;;
75135;SDS011;63707;52.212;9.540;2023-12-04T11:26:53;17.23;;;7.70;;
75135;SDS011;63707;52.212;9.540;2023-12-04T11:29:19;16.40;;;7.85;;
75135;SDS011;63707;52.212;9.540;2023-12-04T11:31:47;17.75;;;8.02;;
75135;SDS011;63707;52.212;9.540;2023-12-04T11:34:13;18.50;;;8.82;;
75135;SDS011;63707;52.212;9.540;2023-12-04T11:36:38;18.85;;;9.00;;
75135;SDS011;63707;52.212;9.540;2023-12-04T11:39:08;16.17;;;7.78;;
75135;SDS011;63707;52.212;9.540;2023-12-04T11:41:35;18.38;;;8.38;;
75135;SDS011;63707;52.212;9.540;2023-12-04T11:44:00;15.07;;;7.13;;
75135;SDS011;63707;52.212;9.540;2023-12-04T11:46:26;16.80;;;7.40;;
75135;SDS011;63707;52.212;9.540;2023-12-04T11:48:55;17.02;;;8.48;;
75135;SDS011;63707;52.212;9.540;2023-12-04T11:54:14;14.30;;;7.30;;
75135;SDS011;63707;52.212;9.540;2023-12-04T11:56:40;14.43;;;7.03;;
75135;SDS011;63707;52.212;9.540;2023-12-04T11:59:06;15.60;;;6.85;;
75135;SDS011;63707;52.212;9.540;2023-12-04T12:01:32;15.77;;;7.88;;
75135;SDS011;63707;52.212;9.540;2023-12-04T12:03:59;14.77;;;7.78;;
75135;SDS011;63707;52.212;9.540;2023-12-04T12:06:26;13.02;;;6.60;;
75135;SDS011;63707;52.212;9.540;2023-12-04T12:08:51;15.50;;;7.22;;
75135;SDS011;63707;52.212;9.540;2023-12-04T12:11:17;13.60;;;7.05;;
75135;SDS011;63707;52.212;9.540;2023-12-04T12:13:43;15.77;;;6.50;;
75135;SDS011;63707;52.212;9.540;2023-12-04T12:16:09;14.70;;;6.82;;
75135;SDS011;63707;52.212;9.540;2023-12-04T12:18:36;13.88;;;6.80;;
75135;SDS011;63707;52.212;9.540;2023-12-04T12:21:03;15.50;;;9.23;;
75135;SDS011;63707;52.212;9.540;2023-12-04T12:23:30;20.20;;;9.55;;
75135;SDS011;63707;52.212;9.540;2023-12-04T12:25:55;30.25;;;18.77;;
75135;SDS011;63707;52.212;9.540;2023-12-04T12:28:21;27.50;;;15.00;;
75135;SDS011;63707;52.212;9.540;2023-12-04T12:30:47;23.85;;;12.57;;
75135;SDS011;63707;52.212;9.540;2023-12-04T12:33:12;23.67;;;11.57;;
75135;SDS011;63707;52.212;9.540;2023-12-04T12:35:38;24.02;;;12.45;;
75135;SDS011;63707;52.212;9.540;2023-12-04T12:38:05;23.63;;;10.73;;
75135;SDS011;63707;52.212;9.540;2023-12-04T12:40:30;22.40;;;10.55;;
75135;SDS011;63707;52.212;9.540;2023-12-04T12:43:03;21.58;;;9.60;;
75135;SDS011;63707;52.212;9.540;2023-12-04T12:45:33;21.30;;;9.73;;
75135;SDS011;63707;52.212;9.540;2023-12-04T12:48:04;19.67;;;9.77;;
75135;SDS011;63707;52.212;9.540;2023-12-04T12:50:31;26.35;;;12.90;;
75135;SDS011;63707;52.212;9.540;2023-12-04T12:52:56;32.65;;;15.90;;
75135;SDS011;63707;52.212;9.540;2023-12-04T12:55:24;22.80;;;11.02;;
75135;SDS011;63707;52.212;9.540;2023-12-04T12:57:50;26.05;;;13.20;;
75135;SDS011;63707;52.212;9.540;2023-12-04T13:00:16;26.92;;;12.25;;
75135;SDS011;63707;52.212;9.540;2023-12-04T13:02:44;25.98;;;12.13;;
75135;SDS011;63707;52.212;9.540;2023-12-04T13:05:09;23.88;;;10.90;;
75135;SDS011;63707;52.212;9.540;2023-12-04T13:07:36;30.50;;;13.30;;
75135;SDS011;63707;52.212;9.540;2023-12-04T13:10:02;34.85;;;15.45;;
75135;SDS011;63707;52.212;9.540;2023-12-04T13:12:31;38.08;;;15.95;;
75135;SDS011;63707;52.212;9.540;2023-12-04T13:14:57;29.70;;;13.80;;
75135;SDS011;63707;52.212;9.540;2023-12-04T13:17:23;24.15;;;12.05;;
75135;SDS011;63707;52.212;9.540;2023-12-04T13:19:48;22.58;;;11.15;;
75135;SDS011;63707;52.212;9.540;2023-12-04T13:22:14;24.67;;;11.15;;
75135;SDS011;63707;52.212;9.540;2023-12-04T13:24:39;24.55;;;10.88;;
75135;SDS011;63707;52.212;9.540;2023-12-04T13:27:06;20.73;;;10.10;;
75135;SDS011;63707;52.212;9.540;2023-12-04T13:29:33;22.38;;;9.95;;
75135;SDS011;63707;52.212;9.540;2023-12-04T13:31:59;21.17;;;11.45;;
75135;SDS011;63707;52.212;9.540;2023-12-04T13:34:25;20.33;;;9.88;;
75135;SDS011;63707;52.212;9.540;2023-12-04T13:36:50;20.60;;;10.35;;
75135;SDS011;63707;52.212;9.540;2023-12-04T13:39:16;21.38;;;9.77;;
75135;SDS011;63707;52.212;9.540;2023-12-04T13:41:42;27.73;;;13.57;;
75135;SDS011;63707;52.212;9.540;2023-12-04T13:44:27;22.23;;;10.25;;
75135;SDS011;63707;52.212;9.540;2023-12-04T13:46:54;24.80;;;11.43;;
75135;SDS011;63707;52.212;9.540;2023-12-04T13:49:20;22.67;;;10.93;;
75135;SDS011;63707;52.212;9.540;2023-12-04T13:51:45;25.20;;;12.45;;
75135;SDS011;63707;52.212;9.540;2023-12-04T13:54:14;26.80;;;12.52;;
75135;SDS011;63707;52.212;9.540;2023-12-04T13:56:59;23.15;;;10.82;;
75135;SDS011;63707;52.212;9.540;2023-12-04T13:59:25;22.92;;;11.25;;
75135;SDS011;63707;52.212;9.540;2023-12-04T14:01:52;27.17;;;12.23;;
75135;SDS011;63707;52.212;9.540;2023-12-04T14:04:21;30.77;;;14.10;;
75135;SDS011;63707;52.212;9.540;2023-12-04T14:06:48;28.75;;;16.63;;
75135;SDS011;63707;52.212;9.540;2023-12-04T14:09:14;23.17;;;11.50;;
75135;SDS011;63707;52.212;9.540;2023-12-04T14:11:41;26.77;;;12.00;;
75135;SDS011;63707;52.212;9.540;2023-12-04T14:14:08;24.42;;;11.23;;
75135;SDS011;63707;52.212;9.540;2023-12-04T14:16:33;24.00;;;11.45;;
75135;SDS011;63707;52.212;9.540;2023-12-04T14:18:59;25.98;;;11.77;;
75135;SDS011;63707;52.212;9.540;2023-12-04T14:21:27;24.70;;;11.73;;
75135;SDS011;63707;52.212;9.540;2023-12-04T14:23:53;25.27;;;12.27;;
75135;SDS011;63707;52.212;9.540;2023-12-04T14:26:18;24.98;;;11.60;;